Skip Navigation Links Skip Navigation Links

Current Weather

Fayetteville Regional/Grannis Field, Fayetteville, N.C.

For information only: do not use for flight planning or navigation.
Latest weather
Observation time Friday, December 4, 2020 2:53 AM EST
Local time Friday, December 4, 2020 3:16 AM EST
Flight conditions Visual Meteorological Conditions
Winds
Wind speed calm
Visibility 10 mi.
Sky condition
Ceiling unlimited
Sky clear
Temperature 37°F
Dewpoint 33°F
Altimeter 30.24 in.Hg
Derived measurements
Relative humidity 85%
Wind chill 37°F
Density altitude -1564 ft.
Sea-level pressure 30.23 in.Hg
Remarks
Automated weather observing station with precipitation discriminator.
METAR KFAY 040753Z 00000KT 10SM CLR 03/01 A3024 RMK AO2 SLP236 T00280006

Settings

Location code

InnerDrive.Weather 4.0.6770.0 Release CLR 4.0.30319.42000
Copyright ©2018 Inner Drive Technology. All rights reserved. Portions Copyright ©1986-2018 David Braverman.

Find weather

Site navigation


Skip Navigation Links

Place info

Page info

PayPal - The safer, easier way to pay online!

Return home.

Copyright ©2020 Inner Drive Technology. Purveyors of fine, hand-crafted computer software. Page printed 2020-12-04T08:16:49 UTC.